LEGR/GRX METAR and TAF weather

Enter ICAO airport designator
Station Type Date Time Source
LEGR METAR 2019/02/16 03:00 UTC NOAA

LEGR 160300Z AUTO 15003KT 9999 NCD 05/03 Q1023


Station Type Date Time Source
LEGR Decoded METAR 2019/02/16 03:00 UTC NOAA

Granada / Aeropuerto, Spain (LEGR) 37-11N 003-47W 570M
Feb 15, 2019 - 10:00 PM EST / 2019.02.16 0300 UTC
Wind: from the SSE (150 degrees) at 3 MPH (3 KT):0
Visibility: greater than 7 mile(s):0
Temperature: 41 F (5 C)
Dew Point: 37 F (3 C)
Relative Humidity: 86%
Pressure (altimeter): 30.21 in. Hg (1023 hPa)
ob: LEGR 160300Z AUTO 15003KT 9999 NCD 05/03 Q1023
cycle: 3

Station Type Date Time Source
LEGR TAF 2019/02/16 03:27 UTC NOAA

TAF LEGR 160200Z 1603/1703 VRB02KT CAVOK TX19/1615Z TN01/1607Z
TEMPO 1615/1619 16012KT


Example: see airport list